Time;durP1;ratioP1;P1;durP2;ratioP2;P2;SDS_P1;SDS_P2;PMS_P1;PMS_P2;Temp;Humidity;BMP_temperature;BMP_pressure;BME280_temperature;BME280_humidity;BME280_pressure;Samples;Min_cycle;Max_cycle;Signal;HPM_P1;HPM_P2
2021/12/01 00:00:45;;;;;;;20.17;13.87;;;;;;;;;;5121060;27;20211;-71
2021/12/01 00:03:11;;;;;;;17.50;11.63;;;;;;;;;;5123954;27;20233;-71
2021/12/01 00:05:38;;;;;;;22.83;13.30;;;;;;;;;;5120590;27;20245;-71
2021/12/01 00:08:06;;;;;;;21.50;13.17;;;;;;;;;;5121385;27;20260;-71
2021/12/01 00:10:35;;;;;;;17.53;11.47;;;;;;;;;;5120633;27;20745;-71
2021/12/01 00:13:02;;;;;;;16.57;10.27;;;;;;;;;;5121424;27;20755;-71
2021/12/01 00:15:28;;;;;;;14.23;9.13;;;;;;;;;;5120083;27;20208;-71
2021/12/01 00:17:55;;;;;;;20.27;9.97;;;;;;;;;;5121046;27;20335;-71
2021/12/01 00:20:21;;;;;;;17.80;8.50;;;;;;;;;;5117959;27;20252;-71
2021/12/01 00:22:49;;;;;;;14.30;8.07;;;;;;;;;;5121719;27;20532;-71
2021/12/01 00:25:19;;;;;;;13.07;7.13;;;;;;;;;;5119911;27;20255;-70
2021/12/01 00:27:46;;;;;;;15.10;7.90;;;;;;;;;;5121525;27;20222;-71
2021/12/01 00:30:12;;;;;;;10.10;6.43;;;;;;;;;;5122254;27;20676;-71
2021/12/01 00:32:39;;;;;;;12.40;7.57;;;;;;;;;;5120369;27;20242;-70
2021/12/01 00:35:06;;;;;;;16.20;8.37;;;;;;;;;;5120683;27;20208;-70
2021/12/01 00:37:33;;;;;;;21.20;9.03;;;;;;;;;;5121428;27;20267;-70
2021/12/01 00:39:59;;;;;;;13.33;7.87;;;;;;;;;;5121947;27;20236;-70
2021/12/01 00:42:27;;;;;;;15.00;8.27;;;;;;;;;;5120075;27;20214;-70
2021/12/01 00:44:56;;;;;;;10.37;6.83;;;;;;;;;;5120719;27;20218;-70
2021/12/01 00:47:30;;;;;;;10.67;5.33;;;;;;;;;;5124766;27;20226;-69
2021/12/01 00:49:57;;;;;;;6.67;5.67;;;;;;;;;;5122089;27;20227;-70
2021/12/01 00:52:23;;;;;;;6.80;4.73;;;;;;;;;;5120077;27;20262;-69
2021/12/01 00:54:50;;;;;;;4.97;3.17;;;;;;;;;;5124577;27;20771;-70
2021/12/01 00:57:16;;;;;;;5.13;3.10;;;;;;;;;;5123276;27;20234;-70
2021/12/01 00:59:44;;;;;;;4.53;2.50;;;;;;;;;;5122730;27;20259;-69
2021/12/01 01:02:10;;;;;;;3.60;2.53;;;;;;;;;;5124301;27;20275;-70
2021/12/01 01:04:37;;;;;;;4.47;2.43;;;;;;;;;;5126019;27;20255;-70
2021/12/01 01:07:04;;;;;;;5.23;2.77;;;;;;;;;;5122240;27;20210;-70
2021/12/01 01:09:32;;;;;;;5.30;2.73;;;;;;;;;;5125898;27;20823;-72
2021/12/01 01:17:37;;;;;;;4.93;3.50;;;;;;;;;;5126739;27;20634;-70
2021/12/01 01:20:06;;;;;;;3.90;3.40;;;;;;;;;;5127218;27;20317;-70
2021/12/01 01:22:32;;;;;;;4.87;4.00;;;;;;;;;;5125224;27;20748;-70
2021/12/01 01:24:59;;;;;;;6.57;4.53;;;;;;;;;;5124466;27;20815;-70
2021/12/01 01:27:25;;;;;;;7.43;5.23;;;;;;;;;;5124898;27;20218;-70
2021/12/01 01:29:53;;;;;;;7.20;4.87;;;;;;;;;;5124869;27;20224;-71
2021/12/01 01:32:19;;;;;;;9.30;4.20;;;;;;;;;;5124400;27;20229;-70
2021/12/01 01:34:46;;;;;;;9.27;4.80;;;;;;;;;;5126021;27;20224;-70
2021/12/01 01:37:12;;;;;;;5.73;3.37;;;;;;;;;;5124642;27;20658;-69
2021/12/01 01:39:39;;;;;;;4.33;2.33;;;;;;;;;;5123242;27;20246;-69
2021/12/01 01:42:05;;;;;;;4.50;2.73;;;;;;;;;;5124809;27;20261;-69
2021/12/01 01:44:32;;;;;;;5.73;2.27;;;;;;;;;;5123668;27;20211;-69
2021/12/01 01:47:00;;;;;;;4.40;1.90;;;;;;;;;;5123185;27;20214;-70
2021/12/01 01:49:40;;;;;;;5.23;1.97;;;;;;;;;;5124183;27;20237;-72
2021/12/01 01:52:07;;;;;;;6.73;2.20;;;;;;;;;;5124393;27;20633;-72
2021/12/01 01:54:34;;;;;;;5.77;2.23;;;;;;;;;;5123479;27;20234;-72
2021/12/01 01:57:00;;;;;;;7.00;2.60;;;;;;;;;;5124774;27;20220;-69
2021/12/01 01:59:27;;;;;;;7.43;2.70;;;;;;;;;;5122838;27;20218;-70
2021/12/01 02:01:56;;;;;;;5.13;3.00;;;;;;;;;;5124469;27;20631;-70
2021/12/01 02:04:25;;;;;;;8.90;6.63;;;;;;;;;;5122740;27;20311;-70
2021/12/01 02:06:52;;;;;;;7.23;6.37;;;;;;;;;;5125944;27;20215;-70
2021/12/01 02:09:21;;;;;;;5.27;4.33;;;;;;;;;;5123368;27;20214;-69
2021/12/01 02:11:48;;;;;;;5.80;3.50;;;;;;;;;;5122281;27;20207;-70
2021/12/01 02:14:16;;;;;;;7.13;2.93;;;;;;;;;;5122558;27;21700;-69
2021/12/01 02:16:42;;;;;;;6.27;3.63;;;;;;;;;;5123415;27;20737;-70
2021/12/01 02:19:09;;;;;;;4.80;1.97;;;;;;;;;;5123574;27;20229;-70
2021/12/01 02:21:37;;;;;;;5.10;3.20;;;;;;;;;;5124461;27;20203;-70
2021/12/01 02:24:07;;;;;;;4.83;2.53;;;;;;;;;;5125531;27;20218;-69
2021/12/01 02:26:36;;;;;;;5.37;2.67;;;;;;;;;;5124392;27;20716;-70
2021/12/01 02:29:05;;;;;;;6.10;2.60;;;;;;;;;;5121052;27;20207;-69
2021/12/01 02:31:35;;;;;;;8.97;1.93;;;;;;;;;;5124600;27;20226;-69
2021/12/01 02:34:02;;;;;;;4.57;1.80;;;;;;;;;;5121732;27;20223;-71
2021/12/01 02:36:29;;;;;;;6.13;1.83;;;;;;;;;;5122133;27;20630;-71
2021/12/01 02:38:57;;;;;;;7.20;1.33;;;;;;;;;;5122768;27;20740;-71
2021/12/01 02:41:29;;;;;;;6.60;1.67;;;;;;;;;;5119018;27;20657;-70
2021/12/01 02:43:57;;;;;;;7.43;2.07;;;;;;;;;;5121145;27;20301;-71
2021/12/01 02:46:24;;;;;;;8.00;1.53;;;;;;;;;;5122884;27;20211;-71
2021/12/01 02:48:51;;;;;;;8.57;1.60;;;;;;;;;;5117952;27;20323;-71
2021/12/01 02:51:19;;;;;;;5.47;1.80;;;;;;;;;;5120144;27;20986;-71
2021/12/01 02:53:46;;;;;;;8.10;1.90;;;;;;;;;;5122105;27;20895;-72
2021/12/01 02:56:17;;;;;;;7.03;2.13;;;;;;;;;;5121378;27;20226;-71
2021/12/01 02:58:45;;;;;;;4.83;1.43;;;;;;;;;;5122186;27;20210;-71
2021/12/01 03:01:14;;;;;;;4.90;2.00;;;;;;;;;;5121727;27;20664;-71
2021/12/01 03:03:40;;;;;;;2.87;1.53;;;;;;;;;;5123600;27;20696;-71
2021/12/01 03:06:08;;;;;;;4.00;1.57;;;;;;;;;;5122208;27;20280;-71
2021/12/01 03:08:36;;;;;;;4.07;1.13;;;;;;;;;;5121999;27;20212;-71
2021/12/01 03:11:03;;;;;;;5.07;1.40;;;;;;;;;;5120804;27;20650;-72
2021/12/01 03:13:32;;;;;;;3.70;1.60;;;;;;;;;;5118377;27;20215;-71
2021/12/01 03:15:59;;;;;;;3.40;1.67;;;;;;;;;;5119218;27;20204;-72
2021/12/01 03:18:25;;;;;;;3.23;1.60;;;;;;;;;;5120244;27;20295;-71
2021/12/01 03:20:53;;;;;;;3.27;1.60;;;;;;;;;;5120193;27;20813;-72
2021/12/01 03:23:20;;;;;;;2.67;1.43;;;;;;;;;;5120657;27;20204;-72
2021/12/01 03:25:47;;;;;;;1.60;1.30;;;;;;;;;;5118986;27;20300;-72
2021/12/01 03:28:15;;;;;;;2.47;1.43;;;;;;;;;;5121554;27;20685;-72
2021/12/01 03:30:43;;;;;;;3.97;1.63;;;;;;;;;;5122038;27;20236;-73
2021/12/01 03:33:13;;;;;;;4.00;2.50;;;;;;;;;;5118490;27;20896;-71
2021/12/01 03:35:41;;;;;;;3.13;2.10;;;;;;;;;;5120797;27;20219;-71
2021/12/01 03:38:07;;;;;;;3.83;1.87;;;;;;;;;;5121417;27;20941;-71
2021/12/01 03:40:34;;;;;;;5.17;2.83;;;;;;;;;;5119548;27;20250;-70
2021/12/01 03:43:00;;;;;;;4.23;2.70;;;;;;;;;;5120657;27;20665;-70
2021/12/01 03:45:27;;;;;;;4.30;2.43;;;;;;;;;;5119139;27;20217;-70
2021/12/01 03:47:55;;;;;;;4.13;3.40;;;;;;;;;;5120687;27;20294;-70
2021/12/01 03:50:21;;;;;;;2.60;2.40;;;;;;;;;;5119633;27;20227;-71
2021/12/01 03:52:48;;;;;;;3.50;2.77;;;;;;;;;;5121736;27;20217;-70
2021/12/01 03:55:15;;;;;;;2.87;2.57;;;;;;;;;;5119432;27;20224;-71
2021/12/01 03:57:41;;;;;;;3.30;2.17;;;;;;;;;;5121548;27;20747;-71
2021/12/01 04:00:12;;;;;;;2.03;1.90;;;;;;;;;;5120795;27;20259;-71
2021/12/01 04:02:39;;;;;;;1.77;1.63;;;;;;;;;;5120215;27;20277;-71
2021/12/01 04:05:08;;;;;;;4.43;2.23;;;;;;;;;;5119116;27;20787;-71
2021/12/01 04:07:35;;;;;;;2.27;1.50;;;;;;;;;;5119764;27;21167;-71
2021/12/01 04:10:02;;;;;;;2.27;1.43;;;;;;;;;;5119126;27;20276;-71
2021/12/01 04:12:29;;;;;;;1.87;1.53;;;;;;;;;;5123879;27;20285;-71
2021/12/01 04:14:55;;;;;;;1.60;1.50;;;;;;;;;;5123830;27;20225;-71
2021/12/01 04:17:21;;;;;;;2.20;1.83;;;;;;;;;;5120094;27;20224;-71
2021/12/01 04:19:48;;;;;;;3.70;2.70;;;;;;;;;;5121309;27;20213;-71
2021/12/01 04:22:16;;;;;;;3.30;2.60;;;;;;;;;;5121574;27;20225;-71
2021/12/01 04:24:42;;;;;;;3.47;3.17;;;;;;;;;;5118629;27;20222;-70
2021/12/01 04:27:09;;;;;;;3.40;2.57;;;;;;;;;;5121902;27;20214;-72
2021/12/01 04:29:35;;;;;;;3.80;3.50;;;;;;;;;;5121072;27;20297;-71
2021/12/01 04:32:02;;;;;;;3.53;2.67;;;;;;;;;;5120634;27;20711;-71
2021/12/01 04:34:28;;;;;;;3.07;2.73;;;;;;;;;;5118817;27;20214;-71
2021/12/01 04:36:55;;;;;;;3.80;3.40;;;;;;;;;;5121681;27;20284;-71
2021/12/01 04:39:22;;;;;;;4.30;3.77;;;;;;;;;;5122457;27;20924;-71
2021/12/01 04:41:52;;;;;;;6.07;4.07;;;;;;;;;;5121571;27;20259;-71
2021/12/01 04:44:20;;;;;;;3.43;3.13;;;;;;;;;;5126109;27;20699;-71
2021/12/01 04:46:48;;;;;;;4.93;4.10;;;;;;;;;;5124445;27;20433;-71
2021/12/01 04:49:18;;;;;;;4.53;3.77;;;;;;;;;;5121893;27;20230;-72
2021/12/01 04:51:46;;;;;;;3.47;3.07;;;;;;;;;;5125741;27;20282;-72
2021/12/01 04:54:13;;;;;;;4.10;3.57;;;;;;;;;;5122014;27;20245;-71
2021/12/01 04:56:42;;;;;;;3.80;3.23;;;;;;;;;;5122056;27;20261;-71
2021/12/01 04:59:09;;;;;;;6.67;4.30;;;;;;;;;;5122433;27;20213;-72
2021/12/01 05:01:36;;;;;;;4.17;3.77;;;;;;;;;;5122267;27;20635;-72
2021/12/01 05:04:03;;;;;;;6.13;3.70;;;;;;;;;;5124072;27;20231;-71
2021/12/01 05:06:30;;;;;;;3.93;3.07;;;;;;;;;;5124193;27;20302;-71
2021/12/01 05:08:56;;;;;;;4.00;3.57;;;;;;;;;;5124189;27;20261;-72
2021/12/01 05:11:24;;;;;;;3.70;3.30;;;;;;;;;;5122363;27;20278;-72
2021/12/01 05:13:52;;;;;;;3.63;3.33;;;;;;;;;;5124176;27;20214;-72
2021/12/01 05:16:19;;;;;;;2.90;2.70;;;;;;;;;;5125673;27;20667;-72
2021/12/01 05:18:45;;;;;;;3.40;3.10;;;;;;;;;;5123776;27;20229;-72
2021/12/01 05:21:12;;;;;;;2.87;2.60;;;;;;;;;;5123176;27;20223;-72
2021/12/01 05:23:38;;;;;;;3.40;2.17;;;;;;;;;;5122272;27;20205;-72
2021/12/01 05:26:06;;;;;;;3.20;2.90;;;;;;;;;;5119751;27;20755;-73
2021/12/01 05:28:32;;;;;;;3.53;2.40;;;;;;;;;;5122210;27;20565;-71
2021/12/01 05:31:00;;;;;;;2.30;1.73;;;;;;;;;;5124317;27;20260;-72
2021/12/01 05:33:27;;;;;;;2.40;2.20;;;;;;;;;;5122067;27;20714;-73
2021/12/01 05:35:53;;;;;;;3.10;2.80;;;;;;;;;;5121898;27;20628;-72
2021/12/01 05:38:20;;;;;;;2.33;2.13;;;;;;;;;;5121567;27;20258;-73
2021/12/01 05:40:47;;;;;;;3.40;2.93;;;;;;;;;;5123068;27;20229;-73
2021/12/01 05:43:14;;;;;;;3.17;2.87;;;;;;;;;;5123446;27;20706;-72
2021/12/01 05:45:41;;;;;;;4.17;3.83;;;;;;;;;;5123939;27;20273;-72
2021/12/01 05:48:09;;;;;;;4.60;4.13;;;;;;;;;;5122498;27;20220;-72
2021/12/01 05:50:35;;;;;;;3.70;3.40;;;;;;;;;;5120174;27;20629;-72
2021/12/01 05:53:02;;;;;;;3.97;3.57;;;;;;;;;;5121846;27;20209;-72
2021/12/01 05:55:28;;;;;;;4.30;3.90;;;;;;;;;;5124835;27;21100;-72
2021/12/01 05:57:55;;;;;;;4.27;3.97;;;;;;;;;;5123725;27;20258;-72
2021/12/01 06:00:21;;;;;;;5.17;4.10;;;;;;;;;;5124472;27;20909;-72
2021/12/01 06:02:51;;;;;;;4.03;3.73;;;;;;;;;;5126342;27;20221;-72
2021/12/01 06:05:20;;;;;;;4.80;4.40;;;;;;;;;;5121837;27;20205;-71
2021/12/01 06:07:47;;;;;;;4.50;4.10;;;;;;;;;;5123197;27;20739;-73
2021/12/01 06:10:13;;;;;;;3.93;3.63;;;;;;;;;;5120791;27;20225;-72
2021/12/01 06:12:40;;;;;;;4.40;4.00;;;;;;;;;;5119912;27;20237;-73
2021/12/01 06:15:08;;;;;;;5.47;4.97;;;;;;;;;;5121215;27;20214;-73
2021/12/01 06:17:36;;;;;;;4.87;4.37;;;;;;;;;;5123380;27;20684;-72
2021/12/01 06:20:02;;;;;;;4.37;3.97;;;;;;;;;;5121313;27;21108;-74
2021/12/01 06:22:30;;;;;;;4.53;4.13;;;;;;;;;;5121243;27;20210;-72
2021/12/01 06:24:56;;;;;;;4.23;3.50;;;;;;;;;;5122501;27;20227;-74
2021/12/01 06:27:25;;;;;;;5.07;4.20;;;;;;;;;;5121979;27;20217;-73
2021/12/01 06:29:52;;;;;;;5.33;4.83;;;;;;;;;;5121899;27;20269;-73
2021/12/01 06:32:18;;;;;;;4.87;4.37;;;;;;;;;;5122255;27;20244;-71
2021/12/01 06:34:44;;;;;;;5.23;4.73;;;;;;;;;;5120431;27;20208;-72
2021/12/01 06:37:11;;;;;;;5.40;4.90;;;;;;;;;;5121106;27;20617;-72
2021/12/01 06:39:39;;;;;;;4.07;3.67;;;;;;;;;;5121583;27;20240;-73
2021/12/01 06:42:05;;;;;;;4.60;3.57;;;;;;;;;;5121646;27;20204;-72
2021/12/01 06:44:33;;;;;;;4.20;3.80;;;;;;;;;;5120116;27;20212;-72
2021/12/01 06:47:01;;;;;;;4.10;3.70;;;;;;;;;;5121458;27;20210;-72
2021/12/01 06:49:27;;;;;;;5.80;5.30;;;;;;;;;;5123792;27;20234;-73
2021/12/01 06:51:54;;;;;;;5.33;4.80;;;;;;;;;;5121458;27;20237;-73
2021/12/01 06:54:20;;;;;;;6.83;5.97;;;;;;;;;;5122123;27;20215;-73
2021/12/01 06:56:48;;;;;;;6.13;5.53;;;;;;;;;;5121894;27;20305;-74
2021/12/01 06:59:15;;;;;;;6.07;4.83;;;;;;;;;;5122445;27;20856;-73
2021/12/01 07:01:42;;;;;;;5.60;3.83;;;;;;;;;;5119031;27;20717;-73
2021/12/01 07:04:08;;;;;;;5.43;4.93;;;;;;;;;;5122653;27;20222;-73
2021/12/01 07:06:34;;;;;;;6.00;5.17;;;;;;;;;;5121521;27;20740;-73
2021/12/01 07:09:01;;;;;;;5.13;4.60;;;;;;;;;;5120137;27;20423;-72
2021/12/01 07:11:28;;;;;;;3.77;3.30;;;;;;;;;;5116967;27;20226;-73
2021/12/01 07:13:56;;;;;;;4.43;4.03;;;;;;;;;;5120418;27;20288;-73
2021/12/01 07:16:23;;;;;;;4.80;4.33;;;;;;;;;;5116780;27;20279;-71
2021/12/01 07:18:49;;;;;;;5.17;4.67;;;;;;;;;;5117824;27;20273;-71
2021/12/01 07:21:16;;;;;;;4.73;4.13;;;;;;;;;;5121190;27;20609;-71
2021/12/01 07:23:43;;;;;;;4.60;3.77;;;;;;;;;;5116695;27;20207;-72
2021/12/01 07:26:09;;;;;;;4.17;3.77;;;;;;;;;;5117257;27;20874;-73
2021/12/01 07:28:36;;;;;;;4.57;3.77;;;;;;;;;;5119366;27;20265;-72
2021/12/01 07:31:04;;;;;;;5.93;4.40;;;;;;;;;;5117842;27;20284;-72
2021/12/01 07:33:32;;;;;;;4.40;3.77;;;;;;;;;;5118837;27;20230;-72
2021/12/01 07:35:59;;;;;;;3.90;3.43;;;;;;;;;;5118945;27;20228;-72
2021/12/01 07:38:25;;;;;;;4.00;3.70;;;;;;;;;;5120039;27;20556;-73
2021/12/01 07:40:52;;;;;;;4.13;3.50;;;;;;;;;;5118892;27;20223;-72
2021/12/01 07:43:18;;;;;;;6.40;3.10;;;;;;;;;;5119520;27;20326;-74
2021/12/01 07:45:45;;;;;;;3.37;3.07;;;;;;;;;;5119797;27;20258;-73
2021/12/01 07:48:13;;;;;;;4.80;3.13;;;;;;;;;;5116722;27;20282;-73
2021/12/01 07:50:39;;;;;;;3.30;2.70;;;;;;;;;;5121052;27;20218;-73
2021/12/01 07:53:06;;;;;;;2.93;2.40;;;;;;;;;;5116902;27;20275;-72
2021/12/01 07:55:32;;;;;;;4.00;3.17;;;;;;;;;;5118308;27;20228;-74
2021/12/01 07:57:59;;;;;;;3.87;2.70;;;;;;;;;;5117096;27;20213;-74
2021/12/01 08:00:26;;;;;;;3.70;3.23;;;;;;;;;;5116866;27;20297;-74
2021/12/01 08:02:53;;;;;;;4.70;3.50;;;;;;;;;;5119337;27;20683;-73
2021/12/01 08:05:21;;;;;;;6.67;4.37;;;;;;;;;;5118777;27;20299;-73
2021/12/01 08:07:49;;;;;;;5.87;3.47;;;;;;;;;;5119039;27;20211;-73
2021/12/01 08:10:16;;;;;;;5.93;3.90;;;;;;;;;;5118623;27;20271;-73
2021/12/01 08:12:42;;;;;;;6.50;3.97;;;;;;;;;;5121255;27;21013;-73
2021/12/01 08:15:10;;;;;;;4.77;4.10;;;;;;;;;;5121121;27;20262;-73
2021/12/01 08:17:37;;;;;;;5.77;4.57;;;;;;;;;;5092036;27;20226;-75
2021/12/01 08:20:05;;;;;;;10.00;2.70;;;;;;;;;;5121426;27;20985;-74
2021/12/01 08:22:33;;;;;;;6.27;1.80;;;;;;;;;;5120687;27;20274;-73
2021/12/01 08:24:59;;;;;;;5.80;1.70;;;;;;;;;;5121204;27;20320;-73
2021/12/01 08:27:26;;;;;;;6.00;2.10;;;;;;;;;;5121808;27;20264;-72
2021/12/01 08:29:52;;;;;;;11.47;1.90;;;;;;;;;;5123958;27;20258;-73
2021/12/01 08:32:19;;;;;;;5.97;1.63;;;;;;;;;;5122388;27;20749;-72
2021/12/01 08:34:49;;;;;;;9.20;2.20;;;;;;;;;;5123888;27;20285;-72
2021/12/01 08:37:18;;;;;;;9.67;2.37;;;;;;;;;;5120768;27;20227;-71
2021/12/01 08:39:48;;;;;;;12.87;2.70;;;;;;;;;;5121128;27;20242;-73
2021/12/01 08:42:14;;;;;;;10.33;2.20;;;;;;;;;;5121675;27;20200;-72
2021/12/01 08:44:44;;;;;;;7.97;2.10;;;;;;;;;;5122315;27;20262;-72
2021/12/01 08:47:11;;;;;;;11.67;2.43;;;;;;;;;;5120564;27;20207;-73
2021/12/01 08:49:38;;;;;;;13.17;1.90;;;;;;;;;;5126136;27;20238;-73
2021/12/01 08:52:05;;;;;;;7.93;2.33;;;;;;;;;;5121304;27;20277;-73
2021/12/01 08:54:31;;;;;;;11.90;2.23;;;;;;;;;;5121896;27;20229;-73
2021/12/01 08:56:59;;;;;;;7.27;2.10;;;;;;;;;;5121351;27;20590;-74
2021/12/01 08:59:26;;;;;;;5.33;1.70;;;;;;;;;;5117945;27;20213;-74
2021/12/01 09:01:52;;;;;;;8.33;1.73;;;;;;;;;;5122080;27;20755;-74
2021/12/01 09:04:19;;;;;;;7.57;1.33;;;;;;;;;;5120292;27;20560;-74
2021/12/01 09:06:46;;;;;;;7.77;1.70;;;;;;;;;;5117776;27;20271;-74
2021/12/01 09:09:18;;;;;;;7.23;1.37;;;;;;;;;;5118457;27;20213;-74
2021/12/01 09:11:44;;;;;;;10.50;2.53;;;;;;;;;;5121925;27;20936;-73
2021/12/01 09:14:12;;;;;;;8.23;2.10;;;;;;;;;;5121388;27;20569;-73
2021/12/01 09:16:39;;;;;;;9.27;1.30;;;;;;;;;;5122447;27;20531;-73
2021/12/01 09:19:06;;;;;;;5.23;1.40;;;;;;;;;;5107752;27;20230;-73
2021/12/01 09:21:33;;;;;;;6.63;1.50;;;;;;;;;;5113334;27;20238;-73
2021/12/01 09:23:59;;;;;;;6.07;1.40;;;;;;;;;;5114301;27;20210;-74
2021/12/01 09:26:26;;;;;;;9.10;1.83;;;;;;;;;;5112922;27;20233;-75
2021/12/01 09:28:52;;;;;;;6.90;1.93;;;;;;;;;;5114635;27;20200;-74
2021/12/01 09:31:21;;;;;;;5.90;1.63;;;;;;;;;;5118020;27;20209;-75
2021/12/01 09:33:47;;;;;;;8.53;2.07;;;;;;;;;;5115610;27;20604;-76
2021/12/01 09:36:14;;;;;;;7.07;1.90;;;;;;;;;;5117735;27;20212;-75
2021/12/01 09:38:41;;;;;;;11.07;2.33;;;;;;;;;;5115526;27;20237;-73
2021/12/01 09:41:08;;;;;;;5.90;1.00;;;;;;;;;;5114748;27;20308;-73
2021/12/01 09:43:35;;;;;;;7.97;1.50;;;;;;;;;;5117434;27;20920;-75
2021/12/01 09:46:04;;;;;;;6.63;1.33;;;;;;;;;;5116894;27;20212;-72
2021/12/01 09:48:33;;;;;;;6.60;1.63;;;;;;;;;;5115548;27;20251;-73
2021/12/01 09:51:00;;;;;;;6.03;1.17;;;;;;;;;;5118055;27;20213;-73
2021/12/01 09:53:27;;;;;;;5.90;1.53;;;;;;;;;;5113275;27;20292;-73
2021/12/01 09:55:54;;;;;;;5.50;1.10;;;;;;;;;;5116654;27;20444;-74
2021/12/01 09:58:23;;;;;;;5.40;1.47;;;;;;;;;;5116869;27;20212;-74
2021/12/01 10:00:52;;;;;;;8.97;1.53;;;;;;;;;;5116340;27;20385;-74
2021/12/01 10:03:19;;;;;;;6.13;1.80;;;;;;;;;;5108318;27;20232;-73
2021/12/01 10:05:53;;;;;;;6.83;1.63;;;;;;;;;;5114856;27;20264;-74
2021/12/01 10:08:21;;;;;;;11.03;1.80;;;;;;;;;;5115567;27;20262;-74
2021/12/01 10:10:48;;;;;;;14.37;1.93;;;;;;;;;;5115056;27;20242;-74
2021/12/01 10:13:16;;;;;;;7.27;2.50;;;;;;;;;;5113514;27;20233;-75
2021/12/01 10:15:43;;;;;;;8.70;2.17;;;;;;;;;;5113410;27;20212;-74
2021/12/01 10:18:11;;;;;;;7.43;1.90;;;;;;;;;;5115464;27;20292;-74
2021/12/01 10:20:38;;;;;;;12.37;2.90;;;;;;;;;;5116220;27;20708;-76
2021/12/01 10:23:12;;;;;;;10.50;1.97;;;;;;;;;;5115574;27;20214;-73
2021/12/01 10:25:38;;;;;;;7.87;1.97;;;;;;;;;;5115332;27;20283;-74
2021/12/01 10:28:05;;;;;;;7.90;2.40;;;;;;;;;;5112531;27;20629;-74
2021/12/01 10:30:38;;;;;;;7.37;1.47;;;;;;;;;;5113828;27;20216;-74
2021/12/01 10:33:13;;;;;;;10.33;2.03;;;;;;;;;;5116190;27;20778;-76
2021/12/01 10:35:41;;;;;;;8.27;2.17;;;;;;;;;;5114030;27;20268;-74
2021/12/01 10:38:13;;;;;;;8.13;2.20;;;;;;;;;;5114928;27;20206;-78
2021/12/01 10:40:40;;;;;;;9.80;2.20;;;;;;;;;;5113887;27;20251;-77
2021/12/01 10:43:09;;;;;;;11.50;1.73;;;;;;;;;;5114559;27;20236;-74
2021/12/01 10:45:38;;;;;;;9.83;1.70;;;;;;;;;;5115698;27;20201;-73
2021/12/01 10:48:06;;;;;;;11.57;3.13;;;;;;;;;;5112908;27;20966;-73
2021/12/01 10:50:35;;;;;;;8.70;2.20;;;;;;;;;;5112346;27;20218;-74
2021/12/01 10:53:04;;;;;;;9.73;2.20;;;;;;;;;;5115827;27;20237;-73
2021/12/01 10:55:33;;;;;;;9.87;2.60;;;;;;;;;;5115322;27;20388;-75
2021/12/01 10:58:02;;;;;;;12.13;2.77;;;;;;;;;;5117506;27;20874;-74
2021/12/01 11:00:30;;;;;;;9.13;2.60;;;;;;;;;;5114310;27;21080;-73
2021/12/01 11:03:05;;;;;;;10.97;3.53;;;;;;;;;;5115097;27;20277;-74
2021/12/01 11:05:34;;;;;;;11.17;2.30;;;;;;;;;;5116210;27;20201;-76
2021/12/01 11:08:11;;;;;;;10.77;2.33;;;;;;;;;;5114444;27;20744;-76
2021/12/01 11:10:39;;;;;;;16.57;2.47;;;;;;;;;;5115931;27;20292;-74
2021/12/01 11:13:06;;;;;;;11.33;2.57;;;;;;;;;;5114422;27;20231;-74
2021/12/01 11:15:34;;;;;;;13.87;2.93;;;;;;;;;;5116024;27;20673;-74
2021/12/01 11:18:03;;;;;;;13.93;2.87;;;;;;;;;;5116644;27;20224;-74
2021/12/01 11:20:42;;;;;;;11.70;2.67;;;;;;;;;;5113418;27;20216;-75
2021/12/01 11:23:12;;;;;;;12.77;2.97;;;;;;;;;;5118241;27;20233;-74
2021/12/01 11:25:42;;;;;;;14.90;3.73;;;;;;;;;;5113477;27;20232;-74
2021/12/01 11:28:13;;;;;;;13.63;3.07;;;;;;;;;;5114559;27;20227;-76
2021/12/01 11:30:41;;;;;;;9.87;2.83;;;;;;;;;;5115909;27;20238;-74
2021/12/01 11:33:10;;;;;;;9.27;2.60;;;;;;;;;;5116260;27;20232;-74
2021/12/01 11:35:38;;;;;;;9.37;2.77;;;;;;;;;;5095877;27;20291;-77
2021/12/01 11:38:05;;;;;;;10.97;2.97;;;;;;;;;;5116298;27;20208;-73
2021/12/01 11:40:32;;;;;;;13.90;2.70;;;;;;;;;;5113280;27;20236;-76
2021/12/01 11:43:00;;;;;;;13.33;3.10;;;;;;;;;;5115466;27;20260;-76
2021/12/01 11:45:27;;;;;;;12.10;2.83;;;;;;;;;;5114715;27;20464;-77
2021/12/01 11:47:54;;;;;;;7.97;2.03;;;;;;;;;;5113966;27;20236;-76
2021/12/01 11:50:27;;;;;;;9.47;2.10;;;;;;;;;;5114589;27;20214;-75
2021/12/01 11:53:08;;;;;;;12.27;2.67;;;;;;;;;;5116958;27;20779;-74
2021/12/01 11:55:56;;;;;;;8.10;2.40;;;;;;;;;;5114393;27;20634;-77
2021/12/01 11:58:59;;;;;;;8.70;2.47;;;;;;;;;;5112444;27;20314;-74
2021/12/01 12:01:43;;;;;;;11.23;2.50;;;;;;;;;;5114688;27;20221;-74
2021/12/01 12:04:32;;;;;;;6.37;2.50;;;;;;;;;;5116275;27;21217;-73
2021/12/01 12:07:05;;;;;;;8.90;2.50;;;;;;;;;;5117703;27;20208;-77
2021/12/01 12:09:33;;;;;;;13.23;2.50;;;;;;;;;;5114923;27;20221;-76
2021/12/01 12:12:19;;;;;;;12.40;3.00;;;;;;;;;;5117919;27;20220;-74
2021/12/01 12:14:52;;;;;;;12.50;3.07;;;;;;;;;;5108845;27;20237;-74
2021/12/01 12:17:21;;;;;;;14.00;2.63;;;;;;;;;;5120030;27;20764;-74
2021/12/01 12:19:55;;;;;;;11.73;3.30;;;;;;;;;;5116897;27;20215;-75
2021/12/01 12:22:29;;;;;;;12.13;2.50;;;;;;;;;;5114409;27;20943;-78
2021/12/01 12:24:56;;;;;;;10.63;3.30;;;;;;;;;;5112436;27;20231;-75
2021/12/01 12:27:35;;;;;;;7.23;1.80;;;;;;;;;;5116098;27;20209;-73
2021/12/01 12:30:02;;;;;;;8.37;2.53;;;;;;;;;;5113702;27;20210;-74
2021/12/01 12:32:30;;;;;;;11.33;2.43;;;;;;;;;;5117209;27;20662;-76
2021/12/01 12:34:58;;;;;;;11.83;2.73;;;;;;;;;;5113490;27;20209;-78
2021/12/01 12:37:27;;;;;;;9.80;2.63;;;;;;;;;;5119301;27;20250;-74
2021/12/01 12:39:56;;;;;;;11.10;2.87;;;;;;;;;;5117163;27;20229;-73
2021/12/01 12:42:26;;;;;;;10.10;2.50;;;;;;;;;;5117510;27;20242;-75
2021/12/01 12:44:54;;;;;;;11.97;3.53;;;;;;;;;;5115809;27;20273;-76
2021/12/01 12:47:23;;;;;;;11.77;3.23;;;;;;;;;;5119615;27;20662;-76
2021/12/01 12:49:52;;;;;;;11.93;2.80;;;;;;;;;;5114967;27;20241;-77
2021/12/01 12:52:30;;;;;;;11.13;2.53;;;;;;;;;;5121026;27;20207;-75
2021/12/01 12:54:59;;;;;;;10.30;2.90;;;;;;;;;;5118466;27;20238;-76
2021/12/01 12:57:46;;;;;;;8.83;3.07;;;;;;;;;;5118246;27;20718;-76
2021/12/01 13:00:19;;;;;;;11.33;2.43;;;;;;;;;;5123479;27;20197;-75
2021/12/01 13:02:45;;;;;;;9.37;2.53;;;;;;;;;;5121597;27;20780;-72
2021/12/01 13:05:13;;;;;;;13.53;2.47;;;;;;;;;;5123744;27;20256;-73
2021/12/01 13:07:43;;;;;;;11.17;2.63;;;;;;;;;;5122847;27;20220;-73
2021/12/01 13:10:16;;;;;;;14.93;2.40;;;;;;;;;;5122098;27;20228;-72
2021/12/01 13:12:45;;;;;;;12.70;2.50;;;;;;;;;;5119902;27;20215;-75
2021/12/01 13:15:20;;;;;;;11.37;2.73;;;;;;;;;;5119627;27;20220;-72
2021/12/01 13:17:47;;;;;;;12.47;2.90;;;;;;;;;;5124169;27;20677;-72
2021/12/01 13:20:17;;;;;;;12.63;3.07;;;;;;;;;;5120827;27;20210;-72
2021/12/01 13:23:00;;;;;;;11.40;2.37;;;;;;;;;;5120095;27;21030;-75
2021/12/01 13:25:26;;;;;;;11.43;2.47;;;;;;;;;;5122080;27;20264;-72
2021/12/01 13:27:52;;;;;;;7.90;1.97;;;;;;;;;;5122659;27;20691;-72
2021/12/01 13:30:19;;;;;;;9.70;2.77;;;;;;;;;;5122856;27;20213;-73
2021/12/01 13:32:46;;;;;;;7.60;1.40;;;;;;;;;;5123062;27;20227;-75
2021/12/01 13:35:12;;;;;;;10.00;1.83;;;;;;;;;;5120980;27;20228;-73
2021/12/01 13:37:40;;;;;;;7.90;1.63;;;;;;;;;;5122251;27;20211;-74
2021/12/01 13:40:09;;;;;;;8.23;1.77;;;;;;;;;;5120666;27;20234;-74
2021/12/01 13:42:35;;;;;;;9.10;2.23;;;;;;;;;;5120844;27;20859;-73
2021/12/01 13:45:02;;;;;;;6.87;1.60;;;;;;;;;;5120406;27;20573;-74
2021/12/01 13:47:32;;;;;;;5.83;1.47;;;;;;;;;;5120637;27;20255;-76
2021/12/01 13:50:00;;;;;;;7.77;2.00;;;;;;;;;;5121837;27;20204;-74
2021/12/01 13:52:28;;;;;;;7.93;2.00;;;;;;;;;;5121407;27;21037;-73
2021/12/01 13:55:16;;;;;;;8.40;1.67;;;;;;;;;;5123066;27;20794;-75
2021/12/01 13:57:43;;;;;;;10.67;1.77;;;;;;;;;;5120496;27;20227;-79
2021/12/01 14:00:10;;;;;;;7.07;1.87;;;;;;;;;;5121759;27;20269;-77
2021/12/01 14:02:37;;;;;;;5.33;1.90;;;;;;;;;;5124519;27;20221;-76
2021/12/01 14:05:05;;;;;;;7.37;1.70;;;;;;;;;;5120936;27;20207;-74
2021/12/01 14:07:46;;;;;;;12.73;2.20;;;;;;;;;;5123006;27;20266;-78
2021/12/01 14:10:35;;;;;;;10.43;2.10;;;;;;;;;;5121859;27;20310;-73
2021/12/01 14:13:02;;;;;;;8.83;1.63;;;;;;;;;;5120376;27;20209;-72
2021/12/01 14:15:30;;;;;;;13.80;2.30;;;;;;;;;;5121456;27;20203;-74
2021/12/01 14:17:57;;;;;;;11.03;1.97;;;;;;;;;;5119195;27;20274;-74
2021/12/01 14:20:25;;;;;;;8.53;2.17;;;;;;;;;;5120229;27;20212;-75
2021/12/01 14:22:53;;;;;;;8.03;1.97;;;;;;;;;;5120976;27;20678;-76
2021/12/01 14:25:21;;;;;;;10.23;1.67;;;;;;;;;;5102565;27;20227;-76
2021/12/01 14:27:50;;;;;;;10.80;2.07;;;;;;;;;;5123585;27;20204;-75
2021/12/01 14:30:18;;;;;;;8.57;2.03;;;;;;;;;;5120009;27;20345;-78
2021/12/01 14:32:46;;;;;;;12.60;2.03;;;;;;;;;;5118928;27;20216;-74
2021/12/01 14:35:13;;;;;;;8.07;1.90;;;;;;;;;;5118327;27;20914;-76
2021/12/01 14:37:41;;;;;;;7.03;1.70;;;;;;;;;;5121167;27;20207;-77
2021/12/01 14:40:10;;;;;;;6.20;1.47;;;;;;;;;;5124452;27;20315;-77
2021/12/01 14:42:44;;;;;;;7.87;1.67;;;;;;;;;;5120228;27;20211;-75
2021/12/01 14:45:13;;;;;;;8.70;1.67;;;;;;;;;;5123513;27;20254;-75
2021/12/01 14:47:40;;;;;;;6.27;1.97;;;;;;;;;;5121062;27;20743;-77
2021/12/01 14:50:08;;;;;;;7.10;1.73;;;;;;;;;;5121145;27;20615;-76
2021/12/01 14:52:36;;;;;;;6.57;1.27;;;;;;;;;;5120614;27;20212;-76